首页
METAR-TAF:

METAR-TAF

机场 :

雷恩, 法国

纬度: 48-04N, 经度: 001-44W, 海拔: 37米

当前天气观测

该预报发布于21分钟前的19:00 UTC
风速10节,风向西南
温度 19°C
湿度 88%
气压 1019 hPa
能见度10公里或以上
阴天层高于1100英尺

METAR: LFRN 041900Z AUTO 23010KT 9999 OVC011 19/17 Q1019 TEMPO RADZ BKN007

时间: 21:21 (19:21 UTC)

预报

该预报发布于2小时和21分钟前的17:00 UTC
预报有效从04日的 18点(UTC)到 05日的 18点(UTC)
风速10节,风向西南
能见度10公里或以上
阴天层高于1500英尺
短暂存在
从 04日的 18点(UTC)到 05日的 11点(UTC)
能見度: 5000
多云层高于700英尺
雨, 毛毛雨
几率 30% :
短暂存在
从 04日的 22点(UTC)到 05日的 09点(UTC)
能見度: 3000
多云层高于300英尺
雨, 毛毛雨
成为
从 05日的 12点(UTC)到 05日的 14点(UTC)
多云层高于3000英尺
成为
从 05日的 16点(UTC)到 05日的 18点(UTC)
风速10节,风向

TAF: LFRN 041700Z 0418/0518 23010KT 9999 OVC015 TEMPO 0418/0511 5000 RADZ BKN007 PROB30 TEMPO 0422/0509 3000 RADZ BKN003 BECMG 0512/0514 BKN030 BECMG 0516/0518 35010KT

超过4000个机场的气象观测和天气预报(METAR&TAF报告)。

可查询的气象台以黄色和红色小点在地图上表示。

将鼠标移到小点上方,可查看气象台名称。

然后点击查看天气观测和预报。

如需切换地图:点击带黑十字的绿色按钮放大地图;点击带横线的绿色按钮缩小地图;或者点击绿色箭头查看邻近地区的地图。


METAR-TAF: